Time;durP1;ratioP1;P1;durP2;ratioP2;P2;SDS_P1;SDS_P2;PMS_P1;PMS_P2;Temp;Humidity;BMP_temperature;BMP_pressure;BME280_temperature;BME280_humidity;BME280_pressure;Samples;Min_cycle;Max_cycle;Signal;HPM_P1;HPM_P2
2022/11/01 00:00:37;;;;;;;8.07;5.15;;;12.50;89.90;;;;;;4942781;28;20062;-68
2022/11/01 00:03:08;;;;;;;12.20;5.60;;;12.50;90.00;;;;;;4949394;28;20556;-68
2022/11/01 00:05:39;;;;;;;11.60;5.03;;;12.50;90.00;;;;;;4947143;28;20125;-62
2022/11/01 00:08:06;;;;;;;10.02;5.28;;;12.50;90.00;;;;;;4948222;28;20049;-65
2022/11/01 00:10:36;;;;;;;8.07;4.90;;;12.40;90.00;;;;;;4939038;28;20055;-62
2022/11/01 00:13:04;;;;;;;9.57;5.38;;;12.40;90.00;;;;;;4946114;28;20066;-62
2022/11/01 00:15:31;;;;;;;11.27;5.47;;;12.40;90.00;;;;;;4947937;28;20043;-69
2022/11/01 00:17:58;;;;;;;8.85;5.00;;;12.40;90.00;;;;;;4946817;28;20051;-70
2022/11/01 00:20:24;;;;;;;11.73;5.28;;;12.40;90.00;;;;;;4947774;28;20051;-69
2022/11/01 00:22:51;;;;;;;14.57;5.43;;;12.40;90.00;;;;;;4948310;28;20135;-69
2022/11/01 00:25:18;;;;;;;9.60;5.15;;;12.40;90.10;;;;;;4945808;28;20502;-62
2022/11/01 00:27:45;;;;;;;9.95;4.80;;;12.30;90.10;;;;;;4945099;28;20059;-62
2022/11/01 00:30:15;;;;;;;10.38;6.00;;;12.30;90.10;;;;;;4942575;28;20426;-68
2022/11/01 00:32:42;;;;;;;8.45;4.70;;;12.30;90.10;;;;;;4951855;28;20047;-67
2022/11/01 00:35:09;;;;;;;11.35;5.50;;;12.40;90.10;;;;;;4946314;28;20090;-66
2022/11/01 00:37:36;;;;;;;10.95;5.25;;;12.40;90.10;;;;;;4945759;28;20047;-65
2022/11/01 00:40:03;;;;;;;13.80;5.25;;;12.30;90.10;;;;;;4948839;28;20391;-68
2022/11/01 00:42:30;;;;;;;8.18;4.90;;;12.40;90.10;;;;;;4948571;28;20141;-69
2022/11/01 00:44:58;;;;;;;10.65;5.07;;;12.40;90.20;;;;;;4946425;28;20059;-68
2022/11/01 00:47:26;;;;;;;9.20;5.05;;;12.30;90.20;;;;;;4943400;28;20083;-67
2022/11/01 00:49:53;;;;;;;8.55;4.85;;;12.40;90.20;;;;;;4948747;28;20226;-69
2022/11/01 00:52:20;;;;;;;11.40;5.53;;;12.40;90.20;;;;;;4944146;28;20061;-68
2022/11/01 00:54:47;;;;;;;8.65;4.72;;;12.30;90.20;;;;;;4946552;28;20047;-69
2022/11/01 00:57:14;;;;;;;9.38;5.50;;;12.40;90.30;;;;;;4948723;28;20465;-67
2022/11/01 00:59:41;;;;;;;10.85;5.13;;;12.40;90.30;;;;;;4946557;28;20043;-61
2022/11/01 01:02:08;;;;;;;9.82;4.85;;;12.40;90.30;;;;;;4943119;28;20138;-61
2022/11/01 01:04:40;;;;;;;9.57;4.78;;;12.40;90.20;;;;;;4949978;28;20058;-62
2022/11/01 01:07:09;;;;;;;9.55;4.90;;;12.40;90.30;;;;;;4950446;28;20155;-63
2022/11/01 01:09:36;;;;;;;11.13;5.72;;;12.30;90.40;;;;;;4945950;28;20051;-65
2022/11/01 01:12:04;;;;;;;10.20;5.22;;;12.30;90.40;;;;;;4945762;28;20047;-65
2022/11/01 01:14:32;;;;;;;9.60;5.30;;;12.40;90.40;;;;;;4950905;28;20489;-64
2022/11/01 01:16:59;;;;;;;10.15;5.20;;;12.40;90.40;;;;;;4949155;28;20417;-63
2022/11/01 01:19:25;;;;;;;10.75;5.30;;;12.40;90.40;;;;;;4949413;28;20082;-66
2022/11/01 01:21:54;;;;;;;9.18;5.10;;;12.40;90.40;;;;;;4949612;28;20154;-66
2022/11/01 01:24:21;;;;;;;9.57;5.05;;;12.30;90.40;;;;;;4951006;28;20058;-63
2022/11/01 01:26:48;;;;;;;11.70;5.35;;;12.40;90.30;;;;;;4947635;28;20081;-60
2022/11/01 01:29:16;;;;;;;13.57;5.22;;;12.30;90.40;;;;;;4947386;28;20047;-60
2022/11/01 01:31:43;;;;;;;13.00;5.40;;;12.30;90.40;;;;;;4950157;28;20054;-59
2022/11/01 01:34:10;;;;;;;8.63;5.28;;;12.30;90.50;;;;;;4947556;28;20043;-61
2022/11/01 01:36:37;;;;;;;9.98;5.88;;;12.30;90.50;;;;;;4950468;28;20154;-62
2022/11/01 01:39:05;;;;;;;8.45;4.78;;;12.30;90.50;;;;;;4943036;28;20058;-62
2022/11/01 01:44:56;;;;;;;11.52;5.00;;;12.30;90.50;;;;;;4943682;28;20047;-61
2022/11/01 01:47:26;;;;;;;9.48;5.13;;;12.30;90.50;;;;;;4935168;28;20046;-62
2022/11/01 01:49:58;;;;;;;10.07;5.15;;;12.30;90.50;;;;;;4947342;28;20478;-64
2022/11/01 01:52:27;;;;;;;9.13;4.82;;;12.20;90.50;;;;;;4948251;28;20059;-64
2022/11/01 01:54:56;;;;;;;12.57;5.25;;;12.20;90.60;;;;;;4948492;28;20098;-59
2022/11/01 01:57:24;;;;;;;9.75;4.88;;;12.20;90.60;;;;;;4949449;28;20061;-59
2022/11/01 02:00:17;;;;;;;10.63;5.82;;;12.20;90.60;;;;;;4945127;28;20672;-60
2022/11/01 02:02:45;;;;;;;9.38;5.20;;;12.30;90.60;;;;;;4926128;28;20133;-60
2022/11/01 02:05:17;;;;;;;10.20;4.78;;;12.30;90.60;;;;;;4925964;28;20536;-63
2022/11/01 02:07:46;;;;;;;8.02;4.63;;;12.30;90.60;;;;;;4947417;28;20092;-61
2022/11/01 02:10:15;;;;;;;10.93;4.60;;;12.30;90.50;;;;;;4938045;28;20048;-62
2022/11/01 02:12:47;;;;;;;10.07;4.53;;;12.20;90.60;;;;;;4947383;28;20889;-62
2022/11/01 02:15:15;;;;;;;7.28;4.40;;;12.20;90.60;;;;;;4931662;28;20455;-61
2022/11/01 02:17:51;;;;;;;7.55;4.57;;;12.20;90.70;;;;;;4949303;28;20562;-62
2022/11/01 02:20:50;;;;;;;10.55;4.68;;;12.20;90.70;;;;;;4946936;28;20086;-61
2022/11/01 02:23:51;;;;;;;10.90;5.03;;;12.30;90.60;;;;;;4949107;28;20062;-61
2022/11/01 02:26:54;;;;;;;8.00;4.40;;;12.30;90.60;;;;;;4939903;28;20063;-62
2022/11/01 02:29:47;;;;;;;8.38;4.68;;;12.20;90.60;;;;;;4940831;28;20047;-63
2022/11/01 02:32:19;;;;;;;8.02;4.35;;;12.20;90.60;;;;;;4949752;28;20043;-62
2022/11/01 02:34:55;;;;;;;9.00;5.22;;;12.20;90.60;;;;;;4948632;28;20062;-63
2022/11/01 02:37:28;;;;;;;9.00;4.32;;;12.20;90.60;;;;;;4949305;28;20157;-63
2022/11/01 02:40:00;;;;;;;11.50;4.50;;;12.20;90.60;;;;;;4948768;28;20056;-63
2022/11/01 02:42:40;;;;;;;10.85;5.50;;;12.30;90.60;;;;;;4951212;28;20481;-62
2022/11/01 02:45:27;;;;;;;11.32;4.47;;;12.20;90.70;;;;;;4934410;28;20791;-67
2022/11/01 02:47:57;;;;;;;12.50;5.47;;;12.20;90.70;;;;;;4927185;28;20512;-67
2022/11/01 02:50:30;;;;;;;8.57;4.85;;;12.30;90.60;;;;;;4945665;28;20047;-68
2022/11/01 02:52:58;;;;;;;9.07;4.80;;;12.30;90.70;;;;;;4951519;28;20485;-68
2022/11/01 02:55:29;;;;;;;8.15;4.72;;;12.20;90.70;;;;;;4951521;28;20047;-66
2022/11/01 02:57:58;;;;;;;10.57;4.68;;;12.20;90.70;;;;;;4952088;28;20055;-66
2022/11/01 03:00:27;;;;;;;9.35;4.70;;;12.20;90.80;;;;;;4948376;28;20054;-64
2022/11/01 03:03:03;;;;;;;9.23;4.82;;;12.30;90.70;;;;;;4951439;28;20043;-66
2022/11/01 03:05:39;;;;;;;9.45;4.50;;;12.30;90.70;;;;;;4944633;28;20277;-64
2022/11/01 03:08:09;;;;;;;13.15;5.68;;;12.30;90.80;;;;;;4947136;28;20552;-66
2022/11/01 03:10:41;;;;;;;9.55;4.85;;;12.30;90.70;;;;;;4947375;28;20047;-67
2022/11/01 03:13:21;;;;;;;8.35;4.35;;;12.30;90.70;;;;;;4949856;28;20047;-66
2022/11/01 03:15:56;;;;;;;8.75;4.80;;;12.30;90.80;;;;;;4943769;28;20098;-62
2022/11/01 03:18:32;;;;;;;11.10;5.10;;;12.30;90.80;;;;;;4949504;28;20054;-61
2022/11/01 03:21:14;;;;;;;10.35;5.05;;;12.30;90.80;;;;;;4947825;28;20077;-61
2022/11/01 03:23:47;;;;;;;8.48;5.03;;;12.20;90.90;;;;;;4948710;28;20044;-62
2022/11/01 03:26:19;;;;;;;8.75;4.93;;;12.20;90.90;;;;;;4952551;28;20061;-67
2022/11/01 03:28:51;;;;;;;6.43;4.00;;;12.20;90.90;;;;;;4950911;28;20051;-68
2022/11/01 03:31:23;;;;;;;8.57;4.90;;;12.20;91.00;;;;;;4948780;28;20058;-68
2022/11/01 03:33:56;;;;;;;8.73;4.97;;;12.20;90.90;;;;;;4950541;28;20058;-68
2022/11/01 03:36:26;;;;;;;9.32;4.55;;;12.20;90.90;;;;;;4949669;28;20500;-68
2022/11/01 03:38:57;;;;;;;9.45;4.95;;;12.20;90.90;;;;;;4948381;28;20046;-70
2022/11/01 03:41:26;;;;;;;11.38;5.28;;;12.20;90.90;;;;;;4948571;28;20501;-68
2022/11/01 03:43:54;;;;;;;11.73;5.30;;;12.20;90.90;;;;;;4948597;28;20054;-69
2022/11/01 03:46:21;;;;;;;9.77;4.93;;;12.20;90.90;;;;;;4942746;28;20066;-68
2022/11/01 03:48:48;;;;;;;9.35;4.50;;;12.30;90.80;;;;;;4945351;28;20803;-69
2022/11/01 03:51:17;;;;;;;9.35;4.65;;;12.20;90.80;;;;;;4950964;28;20062;-67
2022/11/01 03:53:44;;;;;;;8.55;4.75;;;12.30;90.80;;;;;;4951875;28;20047;-69
2022/11/01 03:56:10;;;;;;;8.73;4.88;;;12.30;90.90;;;;;;4950152;28;20055;-62
2022/11/01 03:58:44;;;;;;;11.00;5.07;;;12.20;90.90;;;;;;4957615;28;20043;-62
2022/11/01 04:01:14;;;;;;;9.63;4.43;;;12.30;91.00;;;;;;4951597;28;20126;-63
2022/11/01 04:03:41;;;;;;;8.98;4.60;;;12.30;91.00;;;;;;4949137;28;20054;-63
2022/11/01 04:06:08;;;;;;;8.20;4.93;;;12.30;91.10;;;;;;4950431;28;20058;-61
2022/11/01 04:08:37;;;;;;;11.43;5.35;;;12.20;91.10;;;;;;4950583;28;20043;-63
2022/11/01 04:11:05;;;;;;;8.60;4.22;;;12.30;91.10;;;;;;4949038;28;20481;-62
2022/11/01 04:13:32;;;;;;;13.45;5.45;;;12.30;91.00;;;;;;4941211;28;20062;-63
2022/11/01 04:21:32;;;;;;;10.45;4.28;;;12.30;91.10;;;;;;4943423;28;20122;-61
2022/11/01 04:24:00;;;;;;;8.20;4.75;;;12.30;91.10;;;;;;4935980;28;20149;-61
2022/11/01 04:26:28;;;;;;;12.43;5.40;;;12.30;91.10;;;;;;4948119;28;20058;-62
2022/11/01 04:28:58;;;;;;;10.23;4.70;;;12.40;91.10;;;;;;4940003;28;20066;-62
2022/11/01 04:31:26;;;;;;;8.60;4.90;;;12.30;91.00;;;;;;4940179;28;20043;-61
2022/11/01 04:33:54;;;;;;;10.30;5.13;;;12.30;91.10;;;;;;4941166;28;20474;-62
2022/11/01 04:36:21;;;;;;;8.13;4.53;;;12.30;91.10;;;;;;4935264;28;20054;-60
2022/11/01 04:38:52;;;;;;;9.50;4.72;;;12.40;91.10;;;;;;4952296;28;20043;-62
2022/11/01 04:41:21;;;;;;;10.65;5.40;;;12.30;91.20;;;;;;4934340;28;20423;-69
2022/11/01 04:43:49;;;;;;;10.85;5.45;;;12.40;91.10;;;;;;4945507;28;20390;-69
2022/11/01 04:46:16;;;;;;;7.22;4.80;;;12.30;91.00;;;;;;4946647;28;20093;-62
2022/11/01 04:48:43;;;;;;;10.02;4.82;;;12.40;91.10;;;;;;4950269;28;20054;-61
2022/11/01 04:51:10;;;;;;;11.95;4.78;;;12.30;91.20;;;;;;4946203;28;20500;-61
2022/11/01 04:53:37;;;;;;;8.68;4.60;;;12.40;91.30;;;;;;4950445;28;20074;-62
2022/11/01 04:56:07;;;;;;;9.55;4.97;;;12.40;91.10;;;;;;4945497;28;20089;-61
2022/11/01 04:58:36;;;;;;;9.27;5.03;;;12.40;91.00;;;;;;4934699;28;20446;-62
2022/11/01 05:01:07;;;;;;;7.80;4.88;;;12.40;91.20;;;;;;4931295;28;20052;-62
2022/11/01 05:03:34;;;;;;;9.90;5.10;;;12.40;91.20;;;;;;4923231;28;20047;-63
2022/11/01 05:06:01;;;;;;;10.25;4.72;;;12.30;91.00;;;;;;4935711;28;20513;-61
2022/11/01 05:08:29;;;;;;;9.65;4.75;;;12.40;90.90;;;;;;4931472;28;20466;-59
2022/11/01 05:10:56;;;;;;;9.07;4.55;;;12.40;91.20;;;;;;4929170;28;20110;-63
2022/11/01 05:13:23;;;;;;;9.20;4.85;;;12.40;91.20;;;;;;4931255;28;20067;-62
2022/11/01 05:15:52;;;;;;;9.98;4.78;;;12.40;91.20;;;;;;4927771;28;20430;-62
2022/11/01 05:18:19;;;;;;;9.40;5.18;;;12.40;91.20;;;;;;4930395;28;20099;-62
2022/11/01 05:20:46;;;;;;;7.88;4.53;;;12.40;91.20;;;;;;4928950;28;20048;-67
2022/11/01 05:23:12;;;;;;;8.45;5.07;;;12.40;91.20;;;;;;4931253;28;20080;-68
2022/11/01 05:25:39;;;;;;;9.80;4.10;;;12.40;91.20;;;;;;4928719;28;20059;-61
2022/11/01 05:28:10;;;;;;;12.90;5.28;;;12.40;91.20;;;;;;4928253;28;20490;-62
2022/11/01 05:30:37;;;;;;;9.80;4.55;;;12.40;91.30;;;;;;4947623;28;20051;-63
2022/11/01 05:33:07;;;;;;;12.35;4.65;;;12.40;91.50;;;;;;4947217;28;20058;-63
2022/11/01 05:35:35;;;;;;;7.47;4.57;;;12.40;91.50;;;;;;4949929;28;20482;-62
2022/11/01 05:38:03;;;;;;;9.38;4.60;;;12.40;91.30;;;;;;4948127;28;20057;-62
2022/11/01 05:40:30;;;;;;;11.07;4.57;;;12.40;91.40;;;;;;4948823;28;20071;-68
2022/11/01 05:42:57;;;;;;;9.90;4.72;;;12.40;91.40;;;;;;4948000;28;20082;-70
2022/11/01 05:45:25;;;;;;;7.82;4.20;;;12.40;91.40;;;;;;4944937;28;20055;-67
2022/11/01 05:47:52;;;;;;;11.20;5.75;;;12.40;91.40;;;;;;4945877;28;20043;-67
2022/11/01 05:50:20;;;;;;;8.05;4.45;;;12.40;91.50;;;;;;4946702;28;20059;-62
2022/11/01 05:52:48;;;;;;;7.53;4.40;;;12.40;91.60;;;;;;4948509;28;20097;-62
2022/11/01 05:55:15;;;;;;;9.13;4.80;;;12.30;91.70;;;;;;4950808;28;20062;-69
2022/11/01 05:57:42;;;;;;;8.95;4.55;;;12.40;91.60;;;;;;4945005;28;20055;-67
2022/11/01 06:00:10;;;;;;;11.02;5.05;;;12.40;91.60;;;;;;4961316;28;20047;-69
2022/11/01 06:02:40;;;;;;;9.55;4.72;;;12.40;91.60;;;;;;4952629;28;20051;-70
2022/11/01 06:05:07;;;;;;;8.63;4.85;;;12.40;91.60;;;;;;4954047;28;20071;-63
2022/11/01 06:07:36;;;;;;;10.90;5.43;;;12.40;91.70;;;;;;4948435;28;20047;-62
2022/11/01 06:10:04;;;;;;;10.98;4.60;;;12.40;91.70;;;;;;4953325;28;20055;-67
2022/11/01 06:12:31;;;;;;;10.35;4.60;;;12.50;91.70;;;;;;4951284;28;20043;-66
2022/11/01 06:14:58;;;;;;;12.90;5.22;;;12.40;91.80;;;;;;4951146;28;20942;-61
2022/11/01 06:17:25;;;;;;;9.52;5.20;;;12.40;91.70;;;;;;4952397;28;20058;-62
2022/11/01 06:19:51;;;;;;;11.32;5.05;;;12.50;91.70;;;;;;4949951;28;20055;-65
2022/11/01 06:22:18;;;;;;;8.27;4.97;;;12.50;91.80;;;;;;4949964;28;20043;-65
2022/11/01 06:24:47;;;;;;;9.60;5.05;;;12.50;91.70;;;;;;4952069;28;20047;-61
2022/11/01 06:27:13;;;;;;;12.32;5.13;;;12.50;91.80;;;;;;4949615;28;20058;-61
2022/11/01 06:29:40;;;;;;;12.18;5.57;;;12.50;91.90;;;;;;4948980;28;20054;-63
2022/11/01 06:32:07;;;;;;;10.95;5.53;;;12.50;92.00;;;;;;4950870;28;20070;-64
2022/11/01 06:34:34;;;;;;;7.93;4.55;;;12.40;92.00;;;;;;4950746;28;20046;-62
2022/11/01 06:37:01;;;;;;;10.20;5.47;;;12.50;91.80;;;;;;4952639;28;20051;-61
2022/11/01 06:39:31;;;;;;;12.75;5.47;;;12.50;91.80;;;;;;4951258;28;20489;-61
2022/11/01 06:41:59;;;;;;;9.05;4.57;;;12.60;91.90;;;;;;4951822;28;20061;-59
2022/11/01 06:44:26;;;;;;;10.05;4.93;;;12.60;92.00;;;;;;4950112;28;20058;-69
2022/11/01 06:46:54;;;;;;;12.30;5.22;;;12.50;91.90;;;;;;4949754;28;20521;-68
2022/11/01 06:49:21;;;;;;;12.30;5.00;;;12.60;91.50;;;;;;4952673;28;20067;-70
2022/11/01 06:51:48;;;;;;;10.52;5.22;;;12.60;91.70;;;;;;4950966;28;20046;-69
2022/11/01 06:54:15;;;;;;;9.48;5.28;;;12.60;91.80;;;;;;4952892;28;20054;-62
2022/11/01 06:56:42;;;;;;;9.05;4.53;;;12.60;92.00;;;;;;4952385;28;20055;-62
2022/11/01 06:59:10;;;;;;;9.63;5.05;;;12.60;91.90;;;;;;4950259;28;20047;-68
2022/11/01 07:01:37;;;;;;;8.30;4.35;;;12.60;91.70;;;;;;4951038;28;20126;-68
2022/11/01 07:04:04;;;;;;;8.35;4.50;;;12.60;92.10;;;;;;4952283;28;20070;-63
2022/11/01 07:06:31;;;;;;;10.25;5.03;;;12.60;91.40;;;;;;4949230;28;20565;-63
2022/11/01 07:08:59;;;;;;;8.98;5.57;;;12.60;91.70;;;;;;4949827;28;20118;-62
2022/11/01 07:11:26;;;;;;;10.52;5.63;;;12.60;91.90;;;;;;4949073;28;20141;-63
2022/11/01 07:13:53;;;;;;;13.60;6.53;;;12.60;91.30;;;;;;4951426;28;20075;-62
2022/11/01 07:16:21;;;;;;;13.13;8.10;;;12.60;91.90;;;;;;4951994;28;20051;-61
2022/11/01 07:18:48;;;;;;;16.13;9.50;;;12.60;91.90;;;;;;4946806;28;20055;-61
2022/11/01 07:21:15;;;;;;;17.70;11.02;;;12.60;91.70;;;;;;4952133;28;20461;-60
2022/11/01 07:23:42;;;;;;;16.02;10.43;;;12.70;92.00;;;;;;4949247;28;20085;-60
2022/11/01 07:26:09;;;;;;;15.60;10.18;;;12.70;92.10;;;;;;4950619;28;20055;-61
2022/11/01 07:28:38;;;;;;;17.80;10.13;;;12.70;92.20;;;;;;4951434;28;20055;-60
2022/11/01 07:31:05;;;;;;;15.75;9.80;;;12.80;92.40;;;;;;4951042;28;20047;-68
2022/11/01 07:33:33;;;;;;;12.77;9.50;;;12.80;92.40;;;;;;4952382;28;20059;-68
2022/11/01 07:36:00;;;;;;;17.42;10.35;;;12.80;92.50;;;;;;4948143;28;20471;-61
2022/11/01 07:38:27;;;;;;;15.63;9.77;;;12.90;92.50;;;;;;4951430;28;20055;-62
2022/11/01 07:40:56;;;;;;;15.05;9.27;;;12.90;92.60;;;;;;4949728;28;20082;-62
2022/11/01 07:43:23;;;;;;;15.02;9.32;;;12.90;92.50;;;;;;4946711;28;20047;-63
2022/11/01 07:45:50;;;;;;;14.45;8.65;;;12.90;92.90;;;;;;4947627;28;20051;-61
2022/11/01 07:48:19;;;;;;;13.30;8.05;;;12.90;92.80;;;;;;4949624;28;20467;-60
2022/11/01 07:50:47;;;;;;;13.52;7.78;;;13.00;92.60;;;;;;4950783;28;20060;-67
2022/11/01 07:53:16;;;;;;;12.85;7.38;;;13.00;92.80;;;;;;4948176;28;20047;-69
2022/11/01 07:55:43;;;;;;;11.25;6.72;;;13.10;93.20;;;;;;4952177;28;20069;-61
2022/11/01 07:58:11;;;;;;;13.20;6.88;;;13.10;93.10;;;;;;4950575;28;20402;-60
2022/11/01 08:00:40;;;;;;;12.25;7.38;;;13.10;93.10;;;;;;4946419;28;20047;-68
2022/11/01 08:03:08;;;;;;;11.55;5.97;;;13.10;92.90;;;;;;4948381;28;20061;-72
2022/11/01 08:05:36;;;;;;;10.95;6.45;;;13.10;93.00;;;;;;4952180;28;20051;-68
2022/11/01 08:08:05;;;;;;;12.52;6.30;;;13.10;93.00;;;;;;4947918;28;20134;-70
2022/11/01 08:10:33;;;;;;;11.00;5.60;;;13.20;92.90;;;;;;4941433;28;20126;-60
2022/11/01 08:13:02;;;;;;;10.45;6.15;;;13.20;92.90;;;;;;4955898;28;20070;-62
2022/11/01 08:15:29;;;;;;;9.88;5.60;;;13.20;92.80;;;;;;4947637;28;20562;-61
2022/11/01 08:17:57;;;;;;;9.90;5.68;;;13.20;92.80;;;;;;4948293;28;20102;-61
2022/11/01 08:20:26;;;;;;;7.65;4.88;;;13.30;92.70;;;;;;4948964;28;20094;-67
2022/11/01 08:22:53;;;;;;;11.43;5.28;;;13.30;92.70;;;;;;4946433;28;20122;-67
2022/11/01 08:25:22;;;;;;;8.93;4.88;;;13.30;92.60;;;;;;4949707;28;20091;-67
2022/11/01 08:27:50;;;;;;;14.13;4.90;;;13.50;93.50;;;;;;4946920;28;20091;-69
2022/11/01 08:30:17;;;;;;;9.30;4.13;;;13.60;94.00;;;;;;4950032;28;20043;-67
2022/11/01 08:32:44;;;;;;;7.68;4.05;;;13.70;94.30;;;;;;4949111;28;20040;-66
2022/11/01 08:35:12;;;;;;;10.32;4.65;;;13.70;94.40;;;;;;4947537;28;20051;-67
2022/11/01 08:37:47;;;;;;;8.00;4.20;;;13.70;94.30;;;;;;4943640;28;20131;-69
2022/11/01 08:40:14;;;;;;;7.65;4.22;;;13.70;94.30;;;;;;4947897;28;20040;-66
2022/11/01 08:42:42;;;;;;;8.70;4.45;;;13.70;94.20;;;;;;4944963;28;20050;-66
2022/11/01 08:45:10;;;;;;;8.25;4.22;;;13.60;94.20;;;;;;4947767;28;20058;-63
2022/11/01 08:47:37;;;;;;;8.85;4.32;;;13.60;94.10;;;;;;4947151;28;20395;-60
2022/11/01 08:50:06;;;;;;;11.02;4.60;;;13.70;94.40;;;;;;4948879;28;20047;-67
2022/11/01 08:52:32;;;;;;;7.95;4.15;;;13.70;94.30;;;;;;4948139;28;20051;-67
2022/11/01 08:55:01;;;;;;;7.00;4.07;;;13.60;94.20;;;;;;4949477;28;20055;-61
2022/11/01 08:57:34;;;;;;;8.98;4.43;;;13.70;94.30;;;;;;4945140;28;20051;-61
2022/11/01 09:00:08;;;;;;;9.43;4.20;;;13.70;94.40;;;;;;4948902;28;20051;-61
2022/11/01 09:02:36;;;;;;;7.22;4.25;;;13.80;94.20;;;;;;4945914;28;20054;-67
2022/11/01 09:05:06;;;;;;;8.18;4.07;;;13.70;94.20;;;;;;4947397;28;20059;-67
2022/11/01 09:07:34;;;;;;;8.27;4.00;;;13.80;93.80;;;;;;4949298;28;20062;-68
2022/11/01 09:10:01;;;;;;;7.05;3.90;;;13.90;93.80;;;;;;4947153;28;20063;-68
2022/11/01 09:12:29;;;;;;;8.57;4.25;;;13.90;93.50;;;;;;4950280;28;20054;-67
2022/11/01 09:14:56;;;;;;;7.20;3.60;;;14.00;93.60;;;;;;4946890;28;20743;-68
2022/11/01 09:17:24;;;;;;;7.30;3.97;;;14.10;94.10;;;;;;4949076;28;20129;-66
2022/11/01 09:19:51;;;;;;;7.00;3.30;;;14.10;94.20;;;;;;4947733;28;20047;-68
2022/11/01 09:22:18;;;;;;;7.72;3.42;;;14.20;93.90;;;;;;4947526;28;20055;-68
2022/11/01 09:24:45;;;;;;;6.95;3.70;;;14.20;94.20;;;;;;4947017;28;20383;-67
2022/11/01 09:27:12;;;;;;;6.07;2.95;;;14.20;94.00;;;;;;4947237;28;20047;-66
2022/11/01 09:29:39;;;;;;;8.77;3.45;;;14.20;93.50;;;;;;4947876;28;20494;-67
2022/11/01 09:32:06;;;;;;;6.53;2.92;;;14.30;93.80;;;;;;4948871;28;20606;-68
2022/11/01 09:34:35;;;;;;;6.90;3.22;;;14.30;93.50;;;;;;4948038;28;20637;-68
2022/11/01 09:37:02;;;;;;;10.05;3.40;;;14.30;93.40;;;;;;4947920;28;20146;-68
2022/11/01 09:39:28;;;;;;;5.88;3.55;;;14.40;93.20;;;;;;4948382;28;20135;-67
2022/11/01 09:41:58;;;;;;;4.90;2.85;;;14.50;93.40;;;;;;4947445;28;20520;-68
2022/11/01 09:44:27;;;;;;;5.75;2.90;;;14.50;93.30;;;;;;4946514;28;20047;-67
2022/11/01 09:46:58;;;;;;;9.07;3.28;;;14.60;93.70;;;;;;4946385;28;20051;-67
2022/11/01 09:49:28;;;;;;;6.13;2.90;;;14.60;94.00;;;;;;4946432;28;20146;-67
2022/11/01 09:51:56;;;;;;;;;;;14.60;93.90;;;;;;4949430;28;20413;-67
2022/11/01 09:54:26;;;;;;;5.10;2.30;;;14.60;94.10;;;;;;4946777;28;20391;-68
2022/11/01 09:57:03;;;;;;;6.90;2.97;;;14.60;93.90;;;;;;4947739;28;20111;-67
2022/11/01 09:59:35;;;;;;;5.53;2.88;;;14.70;93.60;;;;;;4947426;28;20044;-67
2022/11/01 10:02:24;;;;;;;4.95;2.47;;;14.70;93.40;;;;;;4947396;28;20055;-67
2022/11/01 10:05:06;;;;;;;5.40;2.42;;;14.70;93.40;;;;;;4946745;28;20078;-68
2022/11/01 10:07:45;;;;;;;6.28;3.00;;;14.70;93.40;;;;;;4946093;28;20058;-66
2022/11/01 10:10:24;;;;;;;6.82;2.55;;;14.80;93.40;;;;;;4949082;28;20438;-68
2022/11/01 10:13:05;;;;;;;6.13;2.88;;;14.80;93.50;;;;;;4949054;28;20047;-66
2022/11/01 10:15:41;;;;;;;6.55;2.90;;;14.80;93.20;;;;;;4949320;28;20054;-67
2022/11/01 10:18:25;;;;;;;4.90;2.35;;;14.90;93.40;;;;;;4947485;28;20063;-66
2022/11/01 10:20:53;;;;;;;8.85;3.03;;;14.90;93.20;;;;;;4949103;28;20051;-67
2022/11/01 10:23:29;;;;;;;5.55;2.63;;;15.00;93.10;;;;;;4940294;28;20138;-67
2022/11/01 10:25:56;;;;;;;6.18;2.60;;;15.10;92.90;;;;;;4941583;28;20061;-67
2022/11/01 10:28:34;;;;;;;5.78;2.40;;;15.10;92.80;;;;;;4945198;28;20117;-67
2022/11/01 10:31:05;;;;;;;5.20;2.53;;;15.20;92.70;;;;;;4944702;28;20141;-67
2022/11/01 10:33:35;;;;;;;5.55;2.83;;;15.20;92.50;;;;;;4933923;28;20674;-65
2022/11/01 10:36:05;;;;;;;5.53;2.33;;;15.30;92.30;;;;;;4937089;28;20051;-67
2022/11/01 10:38:38;;;;;;;6.78;2.47;;;15.30;92.00;;;;;;4947227;28;20079;-66
2022/11/01 10:41:19;;;;;;;4.28;2.42;;;15.30;91.50;;;;;;4947003;28;20054;-67
2022/11/01 10:43:51;;;;;;;7.50;2.42;;;15.30;91.70;;;;;;4949479;28;20053;-66
2022/11/01 10:46:22;;;;;;;6.00;2.10;;;15.30;91.50;;;;;;4950914;28;20043;-65
2022/11/01 10:48:52;;;;;;;7.20;2.35;;;15.40;91.20;;;;;;4951274;28;20074;-67
2022/11/01 10:51:23;;;;;;;6.93;2.00;;;15.40;90.90;;;;;;4948804;28;20051;-64
2022/11/01 10:53:55;;;;;;;4.45;1.95;;;15.60;90.80;;;;;;4950835;28;20047;-66
2022/11/01 10:56:26;;;;;;;8.23;2.15;;;15.60;90.60;;;;;;4950840;28;20134;-68
2022/11/01 10:59:00;;;;;;;3.75;1.95;;;15.60;90.50;;;;;;4949792;28;20071;-67
2022/11/01 11:01:31;;;;;;;7.65;3.10;;;15.70;89.70;;;;;;4948871;28;20474;-67
2022/11/01 11:04:01;;;;;;;4.95;1.90;;;15.60;89.70;;;;;;4948414;28;20057;-67
2022/11/01 11:06:29;;;;;;;5.15;1.90;;;15.60;88.80;;;;;;4951085;28;21345;-66
2022/11/01 11:08:58;;;;;;;2.67;1.38;;;15.60;88.40;;;;;;4952110;28;20574;-67
2022/11/01 11:11:32;;;;;;;6.32;1.70;;;15.60;88.30;;;;;;4949653;28;20066;-68
2022/11/01 11:14:00;;;;;;;4.07;1.45;;;15.60;88.20;;;;;;4949512;28;20067;-67
2022/11/01 11:16:35;;;;;;;4.75;1.77;;;15.60;88.30;;;;;;4948381;28;20075;-67
2022/11/01 11:19:14;;;;;;;4.38;1.40;;;15.60;87.60;;;;;;4949430;28;20059;-67
2022/11/01 11:21:43;;;;;;;5.05;1.30;;;15.60;86.80;;;;;;4951975;28;20043;-67
2022/11/01 11:24:19;;;;;;;3.50;1.40;;;15.60;87.40;;;;;;4948664;28;20070;-68
2022/11/01 11:26:48;;;;;;;4.10;1.60;;;15.60;87.60;;;;;;4951123;28;20047;-67
2022/11/01 11:29:36;;;;;;;4.43;1.45;;;15.60;87.30;;;;;;4949172;28;20066;-68
2022/11/01 11:32:07;;;;;;;5.38;1.42;;;15.50;86.90;;;;;;4949524;28;20140;-67
2022/11/01 11:34:35;;;;;;;4.30;1.60;;;15.50;86.50;;;;;;4950278;28;20047;-68
2022/11/01 11:37:05;;;;;;;3.72;1.45;;;15.50;86.20;;;;;;4950393;28;20490;-69
2022/11/01 11:39:35;;;;;;;4.15;1.60;;;15.50;86.00;;;;;;4949062;28;20050;-68
2022/11/01 11:42:14;;;;;;;;;;;15.50;86.10;;;;;;4951664;28;20418;-68
2022/11/01 11:44:44;;;;;;;2.45;1.10;;;15.50;86.40;;;;;;4948541;28;19922;-68
2022/11/01 11:47:23;;;;;;;4.10;1.45;;;15.50;86.50;;;;;;4947526;28;20051;-69
2022/11/01 11:49:52;;;;;;;3.08;1.00;;;15.50;85.80;;;;;;4950655;28;20110;-68
2022/11/01 11:52:22;;;;;;;4.22;1.38;;;15.50;85.70;;;;;;4947833;28;20043;-68
2022/11/01 11:54:50;;;;;;;5.40;1.30;;;15.50;85.30;;;;;;4949153;28;20058;-68
2022/11/01 11:57:20;;;;;;;6.85;1.30;;;15.50;85.10;;;;;;4949177;28;20106;-68
2022/11/01 11:59:52;;;;;;;3.30;1.13;;;15.50;85.20;;;;;;4951638;28;20047;-68
2022/11/01 12:02:23;;;;;;;3.50;1.10;;;15.50;85.00;;;;;;4946936;28;20479;-68
2022/11/01 12:04:56;;;;;;;2.95;1.48;;;15.50;84.70;;;;;;4948203;28;20050;-68
2022/11/01 12:07:29;;;;;;;3.25;1.10;;;15.50;84.70;;;;;;4951174;28;20083;-68
2022/11/01 12:10:01;;;;;;;3.17;0.90;;;15.40;84.00;;;;;;4952187;28;20059;-68
2022/11/01 12:12:31;;;;;;;3.13;1.30;;;15.40;83.40;;;;;;4963612;28;20055;-68
2022/11/01 12:15:00;;;;;;;3.17;0.88;;;15.40;83.10;;;;;;4947478;28;20051;-69
2022/11/01 12:17:35;;;;;;;2.85;0.80;;;15.40;82.80;;;;;;4947866;28;20482;-69
2022/11/01 12:20:10;;;;;;;2.50;0.75;;;15.40;81.90;;;;;;4951927;28;20079;-69
2022/11/01 12:22:40;;;;;;;1.92;0.80;;;15.40;81.70;;;;;;4949084;28;20479;-70
2022/11/01 12:25:14;;;;;;;2.13;0.90;;;15.40;81.30;;;;;;4965107;28;20054;-69
2022/11/01 12:27:48;;;;;;;5.15;0.73;;;15.40;79.00;;;;;;4952251;28;20482;-68
2022/11/01 12:30:19;;;;;;;4.60;0.98;;;15.40;79.60;;;;;;4949735;28;20090;-68
2022/11/01 12:32:49;;;;;;;2.42;0.75;;;15.40;79.60;;;;;;4949588;28;20055;-69
2022/11/01 12:35:30;;;;;;;2.50;0.90;;;15.40;80.70;;;;;;4944168;28;20557;-68
2022/11/01 12:38:27;;;;;;;1.80;0.80;;;15.30;80.70;;;;;;4947817;28;20520;-70
2022/11/01 12:40:58;;;;;;;1.15;0.60;;;15.30;80.10;;;;;;4947181;28;20042;-68
2022/11/01 12:43:33;;;;;;;2.97;0.90;;;15.30;79.10;;;;;;4950401;28;20047;-69
2022/11/01 12:46:04;;;;;;;2.88;0.65;;;15.30;78.60;;;;;;4950612;28;20051;-70
2022/11/01 12:48:35;;;;;;;2.55;0.80;;;15.30;78.40;;;;;;4946388;28;20086;-70
2022/11/01 12:51:07;;;;;;;2.67;0.65;;;15.30;77.90;;;;;;4946336;28;20063;-69
2022/11/01 12:53:41;;;;;;;3.08;0.50;;;15.30;76.80;;;;;;4947743;28;20043;-70
2022/11/01 12:56:10;;;;;;;2.90;0.55;;;15.30;77.60;;;;;;4946454;28;20055;-69
2022/11/01 12:58:37;;;;;;;2.72;0.70;;;15.30;78.50;;;;;;4944111;28;20047;-70
2022/11/01 13:01:26;;;;;;;1.55;0.50;;;15.30;77.50;;;;;;4949138;28;20110;-70
2022/11/01 13:04:07;;;;;;;0.98;0.40;;;15.30;76.70;;;;;;4951354;28;20114;-69
2022/11/01 13:06:49;;;;;;;4.22;0.60;;;15.30;77.20;;;;;;4951021;28;20513;-71